SANT/TUC METAR and TAF weather

Enter ICAO airport designator
Station Type Date Time Source
SANT METAR 2022/07/03 15:00 UTC NOAA

SANT 031500Z 23004KT 140V260 7000 NSC 12/01 Q1019 RMK PP000


Station Type Date Time Source
SANT Decoded METAR 2022/07/03 15:00 UTC NOAA

Tucuman Aerodrome, Argentina (SANT) 26-51S 065-06W 450M
Jul 03, 2022 - 11:00 AM EDT / 2022.07.03 1500 UTC
Wind: from the SW (230 degrees) at 5 MPH (4 KT) (direction variable):0
Visibility: 4 mile(s):0
Temperature: 53 F (12 C)
Dew Point: 33 F (1 C)
Relative Humidity: 46%
Pressure (altimeter): 30.09 in. Hg (1019 hPa)
ob: SANT 031500Z 23004KT 140V260 7000 NSC 12/01 Q1019 RMK PP000
cycle: 15

Station Type Date Time Source
SANT TAF 2022/07/03 12:15 UTC NOAA

TAF TAF SANT 031100Z 0312/0412 23005KT 6000 FU BKN055 TX20/0318Z TN07/0410Z
BECMG 0315/0318 VRB03KT 8000 SCT040

Example: see airport list